sensor_id;sensor_type;location;lat;lon;timestamp;pressure;altitude;pressure_sealevel;temperature;humidity
7441;BME280;29616;51.950;8.572;2023-07-29T00:01:29;99292.16;;;19.03;100.00
7441;BME280;29616;51.950;8.572;2023-07-29T00:03:58;99294.59;;;19.11;100.00
7441;BME280;29616;51.950;8.572;2023-07-29T00:06:27;99296.72;;;19.15;100.00
7441;BME280;29616;51.950;8.572;2023-07-29T00:08:58;99291.34;;;19.20;100.00
7441;BME280;29616;51.950;8.572;2023-07-29T00:11:27;99288.78;;;19.19;100.00
7441;BME280;29616;51.950;8.572;2023-07-29T00:13:56;99282.25;;;19.13;100.00
7441;BME280;29616;51.950;8.572;2023-07-29T00:16:25;99261.00;;;19.07;100.00
7441;BME280;29616;51.950;8.572;2023-07-29T00:18:54;99292.34;;;19.26;100.00
7441;BME280;29616;51.950;8.572;2023-07-29T00:21:23;99288.56;;;19.20;100.00
7441;BME280;29616;51.950;8.572;2023-07-29T00:23:52;99286.22;;;19.24;100.00
7441;BME280;29616;51.950;8.572;2023-07-29T00:26:21;99279.81;;;19.23;100.00
7441;BME280;29616;51.950;8.572;2023-07-29T00:28:50;99285.97;;;19.25;100.00
7441;BME280;29616;51.950;8.572;2023-07-29T00:31:19;99275.50;;;19.27;100.00
7441;BME280;29616;51.950;8.572;2023-07-29T00:33:49;99272.81;;;19.21;100.00
7441;BME280;29616;51.950;8.572;2023-07-29T00:36:20;99277.03;;;19.23;100.00
7441;BME280;29616;51.950;8.572;2023-07-29T00:38:49;99273.41;;;19.23;100.00
7441;BME280;29616;51.950;8.572;2023-07-29T00:41:17;99279.00;;;19.16;100.00
7441;BME280;29616;51.950;8.572;2023-07-29T00:43:46;99275.56;;;19.21;100.00
7441;BME280;29616;51.950;8.572;2023-07-29T00:46:17;99256.69;;;19.11;100.00
7441;BME280;29616;51.950;8.572;2023-07-29T00:48:48;99268.72;;;19.23;100.00
7441;BME280;29616;51.950;8.572;2023-07-29T00:51:18;99279.81;;;19.23;100.00
7441;BME280;29616;51.950;8.572;2023-07-29T00:53:46;99269.34;;;19.25;100.00
7441;BME280;29616;51.950;8.572;2023-07-29T00:56:15;99261.28;;;19.24;100.00
7441;BME280;29616;51.950;8.572;2023-07-29T00:58:44;99265.50;;;19.26;100.00
7441;BME280;29616;51.950;8.572;2023-07-29T01:01:13;99271.22;;;19.31;100.00
7441;BME280;29616;51.950;8.572;2023-07-29T01:03:45;99250.97;;;19.31;100.00
7441;BME280;29616;51.950;8.572;2023-07-29T01:06:25;99264.56;;;19.32;100.00
7441;BME280;29616;51.950;8.572;2023-07-29T01:09:00;99251.81;;;19.31;100.00
7441;BME280;29616;51.950;8.572;2023-07-29T01:11:44;99242.94;;;19.23;100.00
7441;BME280;29616;51.950;8.572;2023-07-29T01:14:24;99255.03;;;19.28;100.00
7441;BME280;29616;51.950;8.572;2023-07-29T01:17:00;99256.72;;;19.29;100.00
7441;BME280;29616;51.950;8.572;2023-07-29T01:19:53;99251.81;;;19.31;100.00
7441;BME280;29616;51.950;8.572;2023-07-29T01:22:25;99250.72;;;19.32;100.00
7441;BME280;29616;51.950;8.572;2023-07-29T01:24:56;99251.41;;;19.28;100.00
7441;BME280;29616;51.950;8.572;2023-07-29T01:27:25;99259.88;;;19.33;100.00
7441;BME280;29616;51.950;8.572;2023-07-29T01:29:59;99216.69;;;19.07;100.00
7441;BME280;29616;51.950;8.572;2023-07-29T01:32:34;99230.16;;;19.22;100.00
7441;BME280;29616;51.950;8.572;2023-07-29T01:35:14;99253.03;;;19.35;100.00
7441;BME280;29616;51.950;8.572;2023-07-29T01:37:51;99245.19;;;19.32;100.00
7441;BME280;29616;51.950;8.572;2023-07-29T01:40:27;99229.09;;;19.23;100.00
7441;BME280;29616;51.950;8.572;2023-07-29T01:42:56;99244.31;;;19.39;100.00
7441;BME280;29616;51.950;8.572;2023-07-29T01:45:26;99238.91;;;19.44;100.00
7441;BME280;29616;51.950;8.572;2023-07-29T01:47:54;99245.31;;;19.44;100.00
7441;BME280;29616;51.950;8.572;2023-07-29T01:50:23;99240.84;;;19.43;100.00
7441;BME280;29616;51.950;8.572;2023-07-29T01:52:52;99235.94;;;19.45;100.00
7441;BME280;29616;51.950;8.572;2023-07-29T01:55:21;99224.47;;;19.35;100.00
7441;BME280;29616;51.950;8.572;2023-07-29T01:57:51;99231.06;;;19.41;100.00
7441;BME280;29616;51.950;8.572;2023-07-29T02:00:22;99246.78;;;19.47;100.00
7441;BME280;29616;51.950;8.572;2023-07-29T02:02:50;99237.25;;;19.43;100.00
7441;BME280;29616;51.950;8.572;2023-07-29T02:05:19;99238.06;;;19.43;100.00
7441;BME280;29616;51.950;8.572;2023-07-29T02:07:48;99237.41;;;19.48;100.00
7441;BME280;29616;51.950;8.572;2023-07-29T02:10:17;99222.34;;;19.37;100.00
7441;BME280;29616;51.950;8.572;2023-07-29T02:12:46;99234.69;;;19.41;100.00
7441;BME280;29616;51.950;8.572;2023-07-29T02:15:16;99232.97;;;19.40;100.00
7441;BME280;29616;51.950;8.572;2023-07-29T02:17:46;99230.00;;;19.42;100.00
7441;BME280;29616;51.950;8.572;2023-07-29T02:20:16;99223.22;;;19.38;100.00
7441;BME280;29616;51.950;8.572;2023-07-29T02:22:45;99221.97;;;19.33;100.00
7441;BME280;29616;51.950;8.572;2023-07-29T02:25:16;99203.16;;;19.17;100.00
7441;BME280;29616;51.950;8.572;2023-07-29T02:27:45;99217.78;;;19.24;100.00
7441;BME280;29616;51.950;8.572;2023-07-29T02:30:17;99208.09;;;19.15;100.00
7441;BME280;29616;51.950;8.572;2023-07-29T02:32:46;99221.50;;;19.18;100.00
7441;BME280;29616;51.950;8.572;2023-07-29T02:35:15;99227.25;;;19.17;100.00
7441;BME280;29616;51.950;8.572;2023-07-29T02:37:45;99221.34;;;19.13;100.00
7441;BME280;29616;51.950;8.572;2023-07-29T02:40:16;99187.16;;;19.01;100.00
7441;BME280;29616;51.950;8.572;2023-07-29T02:42:45;99148.06;;;18.73;100.00
7441;BME280;29616;51.950;8.572;2023-07-29T02:45:21;99208.94;;;19.16;100.00
7441;BME280;29616;51.950;8.572;2023-07-29T02:47:49;99211.72;;;19.16;100.00
7441;BME280;29616;51.950;8.572;2023-07-29T02:50:18;99204.72;;;19.13;100.00
7441;BME280;29616;51.950;8.572;2023-07-29T02:52:47;99190.94;;;19.07;100.00
7441;BME280;29616;51.950;8.572;2023-07-29T02:55:18;99194.47;;;19.14;100.00
7441;BME280;29616;51.950;8.572;2023-07-29T02:57:47;99203.31;;;19.22;100.00
7441;BME280;29616;51.950;8.572;2023-07-29T03:00:15;99199.09;;;19.20;100.00
7441;BME280;29616;51.950;8.572;2023-07-29T03:02:46;99206.78;;;19.18;100.00
7441;BME280;29616;51.950;8.572;2023-07-29T03:05:15;99200.81;;;19.21;100.00
7441;BME280;29616;51.950;8.572;2023-07-29T03:07:44;99201.16;;;19.24;100.00
7441;BME280;29616;51.950;8.572;2023-07-29T03:10:13;99201.81;;;19.26;100.00
7441;BME280;29616;51.950;8.572;2023-07-29T03:12:42;99196.72;;;19.23;100.00
7441;BME280;29616;51.950;8.572;2023-07-29T03:15:11;99186.31;;;19.19;100.00
7441;BME280;29616;51.950;8.572;2023-07-29T03:17:39;99161.63;;;18.99;100.00
7441;BME280;29616;51.950;8.572;2023-07-29T03:20:10;99148.69;;;18.93;100.00
7441;BME280;29616;51.950;8.572;2023-07-29T03:22:39;99177.94;;;19.07;100.00
7441;BME280;29616;51.950;8.572;2023-07-29T03:25:08;99181.47;;;19.14;100.00
7441;BME280;29616;51.950;8.572;2023-07-29T03:27:37;99186.56;;;19.17;100.00
7441;BME280;29616;51.950;8.572;2023-07-29T03:30:07;99181.94;;;19.11;100.00
7441;BME280;29616;51.950;8.572;2023-07-29T03:32:37;99185.09;;;19.15;100.00
7441;BME280;29616;51.950;8.572;2023-07-29T03:35:06;99178.25;;;19.17;100.00
7441;BME280;29616;51.950;8.572;2023-07-29T03:37:36;99190.38;;;19.16;100.00
7441;BME280;29616;51.950;8.572;2023-07-29T03:40:06;99175.38;;;19.06;100.00
7441;BME280;29616;51.950;8.572;2023-07-29T03:42:36;99192.69;;;19.19;100.00
7441;BME280;29616;51.950;8.572;2023-07-29T03:45:06;99185.50;;;19.18;100.00
7441;BME280;29616;51.950;8.572;2023-07-29T03:47:34;99168.53;;;19.08;100.00
7441;BME280;29616;51.950;8.572;2023-07-29T03:50:05;99160.31;;;19.02;100.00
7441;BME280;29616;51.950;8.572;2023-07-29T03:52:35;99179.56;;;19.15;100.00
7441;BME280;29616;51.950;8.572;2023-07-29T03:55:05;99175.78;;;19.09;100.00
7441;BME280;29616;51.950;8.572;2023-07-29T03:57:33;99174.38;;;19.00;100.00
7441;BME280;29616;51.950;8.572;2023-07-29T04:00:03;99160.06;;;19.03;100.00
7441;BME280;29616;51.950;8.572;2023-07-29T04:02:41;99161.78;;;19.04;100.00
7441;BME280;29616;51.950;8.572;2023-07-29T04:05:10;99153.31;;;18.99;100.00
7441;BME280;29616;51.950;8.572;2023-07-29T04:07:40;99168.22;;;19.16;100.00
7441;BME280;29616;51.950;8.572;2023-07-29T04:10:09;99166.88;;;19.07;100.00
7441;BME280;29616;51.950;8.572;2023-07-29T04:12:39;99163.19;;;19.13;100.00
7441;BME280;29616;51.950;8.572;2023-07-29T04:15:08;99171.50;;;19.13;100.00
7441;BME280;29616;51.950;8.572;2023-07-29T04:17:37;99163.19;;;19.13;100.00
7441;BME280;29616;51.950;8.572;2023-07-29T04:20:07;99169.31;;;19.15;100.00
7441;BME280;29616;51.950;8.572;2023-07-29T04:22:36;99161.63;;;19.17;100.00
7441;BME280;29616;51.950;8.572;2023-07-29T04:25:07;99166.72;;;19.20;100.00
7441;BME280;29616;51.950;8.572;2023-07-29T04:27:38;99162.53;;;19.29;100.00
7441;BME280;29616;51.950;8.572;2023-07-29T04:30:08;99165.31;;;19.29;100.00
7441;BME280;29616;51.950;8.572;2023-07-29T04:32:37;99164.25;;;19.30;100.00
7441;BME280;29616;51.950;8.572;2023-07-29T04:35:08;99164.69;;;19.27;100.00
7441;BME280;29616;51.950;8.572;2023-07-29T04:37:37;99157.25;;;19.28;100.00
7441;BME280;29616;51.950;8.572;2023-07-29T04:40:08;99172.56;;;19.30;100.00
7441;BME280;29616;51.950;8.572;2023-07-29T04:42:37;99152.09;;;19.31;100.00
7441;BME280;29616;51.950;8.572;2023-07-29T04:45:07;99159.28;;;19.39;100.00
7441;BME280;29616;51.950;8.572;2023-07-29T04:47:35;99171.50;;;19.50;100.00
7441;BME280;29616;51.950;8.572;2023-07-29T04:50:05;99167.03;;;19.49;100.00
7441;BME280;29616;51.950;8.572;2023-07-29T04:52:34;99167.81;;;19.56;100.00
7441;BME280;29616;51.950;8.572;2023-07-29T04:55:04;99172.03;;;19.58;100.00
7441;BME280;29616;51.950;8.572;2023-07-29T04:57:34;99166.25;;;19.60;100.00
7441;BME280;29616;51.950;8.572;2023-07-29T05:00:03;99155.63;;;19.57;100.00
7441;BME280;29616;51.950;8.572;2023-07-29T05:02:32;99155.91;;;19.67;100.00
7441;BME280;29616;51.950;8.572;2023-07-29T05:05:00;99150.69;;;19.77;100.00
7441;BME280;29616;51.950;8.572;2023-07-29T05:07:29;99150.94;;;19.87;100.00
7441;BME280;29616;51.950;8.572;2023-07-29T05:09:58;99138.63;;;19.83;100.00
7441;BME280;29616;51.950;8.572;2023-07-29T05:12:27;99150.25;;;19.91;100.00
7441;BME280;29616;51.950;8.572;2023-07-29T05:14:58;99139.41;;;19.90;100.00
7441;BME280;29616;51.950;8.572;2023-07-29T05:17:26;99157.03;;;20.07;100.00
7441;BME280;29616;51.950;8.572;2023-07-29T05:19:55;99149.69;;;20.01;100.00
7441;BME280;29616;51.950;8.572;2023-07-29T05:22:24;99151.00;;;19.99;100.00
7441;BME280;29616;51.950;8.572;2023-07-29T05:24:53;99154.91;;;20.09;100.00
7441;BME280;29616;51.950;8.572;2023-07-29T05:27:22;99142.31;;;20.25;100.00
7441;BME280;29616;51.950;8.572;2023-07-29T05:29:50;99143.88;;;20.32;100.00
7441;BME280;29616;51.950;8.572;2023-07-29T05:32:20;99136.41;;;20.44;100.00
7441;BME280;29616;51.950;8.572;2023-07-29T05:34:49;99140.91;;;20.57;100.00
7441;BME280;29616;51.950;8.572;2023-07-29T05:37:18;99142.47;;;20.65;100.00
7441;BME280;29616;51.950;8.572;2023-07-29T05:39:47;99150.81;;;20.65;100.00
7441;BME280;29616;51.950;8.572;2023-07-29T05:42:16;99149.47;;;20.79;100.00
7441;BME280;29616;51.950;8.572;2023-07-29T05:44:45;99148.50;;;20.85;100.00
7441;BME280;29616;51.950;8.572;2023-07-29T05:47:13;99152.34;;;20.84;100.00
7441;BME280;29616;51.950;8.572;2023-07-29T05:49:43;99153.09;;;20.91;100.00
7441;BME280;29616;51.950;8.572;2023-07-29T05:52:12;99151.06;;;20.86;100.00
7441;BME280;29616;51.950;8.572;2023-07-29T05:54:41;99143.44;;;20.82;100.00
7441;BME280;29616;51.950;8.572;2023-07-29T05:57:11;99132.06;;;20.95;100.00
7441;BME280;29616;51.950;8.572;2023-07-29T05:59:40;99126.03;;;20.98;100.00
7441;BME280;29616;51.950;8.572;2023-07-29T06:02:08;99147.28;;;21.04;100.00
7441;BME280;29616;51.950;8.572;2023-07-29T06:04:37;99156.34;;;20.99;100.00
7441;BME280;29616;51.950;8.572;2023-07-29T06:07:08;99139.09;;;20.86;100.00
7441;BME280;29616;51.950;8.572;2023-07-29T06:09:37;99153.56;;;20.88;100.00
7441;BME280;29616;51.950;8.572;2023-07-29T06:12:07;99157.91;;;20.84;100.00
7441;BME280;29616;51.950;8.572;2023-07-29T06:14:35;99141.50;;;20.71;100.00
7441;BME280;29616;51.950;8.572;2023-07-29T06:17:04;99164.69;;;20.88;100.00
7441;BME280;29616;51.950;8.572;2023-07-29T06:19:34;99163.47;;;20.84;100.00
7441;BME280;29616;51.950;8.572;2023-07-29T06:22:03;99149.22;;;20.69;100.00
7441;BME280;29616;51.950;8.572;2023-07-29T06:24:34;99177.84;;;20.81;100.00
7441;BME280;29616;51.950;8.572;2023-07-29T06:27:02;99179.31;;;20.83;100.00
7441;BME280;29616;51.950;8.572;2023-07-29T06:29:31;99168.53;;;20.87;100.00
7441;BME280;29616;51.950;8.572;2023-07-29T06:32:00;99182.19;;;20.77;100.00
7441;BME280;29616;51.950;8.572;2023-07-29T06:34:29;99174.22;;;20.80;100.00
7441;BME280;29616;51.950;8.572;2023-07-29T06:36:57;99154.53;;;21.05;100.00
7441;BME280;29616;51.950;8.572;2023-07-29T06:39:27;99142.94;;;21.31;100.00
7441;BME280;29616;51.950;8.572;2023-07-29T06:41:56;99142.16;;;21.47;100.00
7441;BME280;29616;51.950;8.572;2023-07-29T06:44:25;99142.38;;;21.57;100.00
7441;BME280;29616;51.950;8.572;2023-07-29T06:46:53;99126.69;;;21.51;100.00
7441;BME280;29616;51.950;8.572;2023-07-29T06:49:22;99138.44;;;21.42;100.00
7441;BME280;29616;51.950;8.572;2023-07-29T06:51:50;99142.94;;;21.31;100.00
7441;BME280;29616;51.950;8.572;2023-07-29T06:54:19;99141.25;;;21.19;100.00
7441;BME280;29616;51.950;8.572;2023-07-29T06:56:51;99164.69;;;21.11;100.00
7441;BME280;29616;51.950;8.572;2023-07-29T06:59:21;99176.19;;;21.14;100.00
7441;BME280;29616;51.950;8.572;2023-07-29T07:01:51;99180.16;;;21.07;100.00
7441;BME280;29616;51.950;8.572;2023-07-29T07:04:20;99186.91;;;20.88;100.00
7441;BME280;29616;51.950;8.572;2023-07-29T07:06:48;99164.31;;;20.73;100.00
7441;BME280;29616;51.950;8.572;2023-07-29T07:09:17;99196.91;;;21.00;100.00
7441;BME280;29616;51.950;8.572;2023-07-29T07:11:45;99191.00;;;20.97;100.00
7441;BME280;29616;51.950;8.572;2023-07-29T07:14:14;99202.13;;;20.97;100.00
7441;BME280;29616;51.950;8.572;2023-07-29T07:16:44;99192.81;;;20.80;100.00
7441;BME280;29616;51.950;8.572;2023-07-29T07:19:13;99205.59;;;20.92;100.00
7441;BME280;29616;51.950;8.572;2023-07-29T07:21:42;99209.22;;;20.93;100.00
7441;BME280;29616;51.950;8.572;2023-07-29T07:24:10;99203.81;;;20.86;100.00
7441;BME280;29616;51.950;8.572;2023-07-29T07:26:39;99197.06;;;20.94;100.00
7441;BME280;29616;51.950;8.572;2023-07-29T07:29:08;99198.03;;;21.11;100.00
7441;BME280;29616;51.950;8.572;2023-07-29T07:31:36;99203.44;;;21.41;100.00
7441;BME280;29616;51.950;8.572;2023-07-29T07:34:06;99210.28;;;21.61;100.00
7441;BME280;29616;51.950;8.572;2023-07-29T07:36:35;99196.16;;;21.63;100.00
7441;BME280;29616;51.950;8.572;2023-07-29T07:39:04;99202.97;;;21.84;100.00
7441;BME280;29616;51.950;8.572;2023-07-29T07:41:32;99196.69;;;21.88;100.00
7441;BME280;29616;51.950;8.572;2023-07-29T07:44:01;99199.72;;;21.75;100.00
7441;BME280;29616;51.950;8.572;2023-07-29T07:46:30;99211.00;;;21.68;100.00
7441;BME280;29616;51.950;8.572;2023-07-29T07:48:58;99204.31;;;21.93;100.00
7441;BME280;29616;51.950;8.572;2023-07-29T07:51:29;99199.19;;;22.01;100.00
7441;BME280;29616;51.950;8.572;2023-07-29T07:53:58;99206.50;;;22.19;100.00
7441;BME280;29616;51.950;8.572;2023-07-29T07:56:26;99191.16;;;22.33;100.00
7441;BME280;29616;51.950;8.572;2023-07-29T07:58:55;99190.97;;;22.51;100.00
7441;BME280;29616;51.950;8.572;2023-07-29T08:01:23;99182.88;;;22.66;100.00
7441;BME280;29616;51.950;8.572;2023-07-29T08:03:52;99186.97;;;23.14;100.00
7441;BME280;29616;51.950;8.572;2023-07-29T08:06:22;99190.31;;;23.49;100.00
7441;BME280;29616;51.950;8.572;2023-07-29T08:08:52;99190.44;;;23.37;100.00
7441;BME280;29616;51.950;8.572;2023-07-29T08:11:20;99194.41;;;23.25;100.00
7441;BME280;29616;51.950;8.572;2023-07-29T08:13:49;99178.41;;;22.65;100.00
7441;BME280;29616;51.950;8.572;2023-07-29T08:16:18;99181.06;;;22.44;100.00
7441;BME280;29616;51.950;8.572;2023-07-29T08:18:47;99191.31;;;22.71;100.00
7441;BME280;29616;51.950;8.572;2023-07-29T08:21:16;99195.97;;;22.66;100.00
7441;BME280;29616;51.950;8.572;2023-07-29T08:23:44;99173.84;;;22.59;100.00
7441;BME280;29616;51.950;8.572;2023-07-29T08:26:14;99198.78;;;22.54;100.00
7441;BME280;29616;51.950;8.572;2023-07-29T08:28:44;99200.44;;;22.83;100.00
7441;BME280;29616;51.950;8.572;2023-07-29T08:31:12;99194.13;;;23.05;100.00
7441;BME280;29616;51.950;8.572;2023-07-29T08:33:41;99202.09;;;23.18;100.00
7441;BME280;29616;51.950;8.572;2023-07-29T08:36:10;99216.56;;;23.53;100.00
7441;BME280;29616;51.950;8.572;2023-07-29T08:38:39;99207.72;;;23.39;100.00
7441;BME280;29616;51.950;8.572;2023-07-29T08:41:16;99220.94;;;23.11;100.00
7441;BME280;29616;51.950;8.572;2023-07-29T08:43:52;99198.63;;;23.44;100.00
7441;BME280;29616;51.950;8.572;2023-07-29T08:46:21;99205.66;;;23.68;100.00
7441;BME280;29616;51.950;8.572;2023-07-29T08:48:50;99207.91;;;23.16;100.00
7441;BME280;29616;51.950;8.572;2023-07-29T08:51:20;99164.63;;;23.09;100.00
7441;BME280;29616;51.950;8.572;2023-07-29T08:53:49;99191.84;;;23.40;100.00
7441;BME280;29616;51.950;8.572;2023-07-29T08:56:22;99145.47;;;24.84;100.00
7441;BME280;29616;51.950;8.572;2023-07-29T08:58:52;99202.56;;;25.82;100.00
7441;BME280;29616;51.950;8.572;2023-07-29T09:01:21;99208.88;;;26.14;100.00
7441;BME280;29616;51.950;8.572;2023-07-29T09:03:49;99215.56;;;25.09;100.00
7441;BME280;29616;51.950;8.572;2023-07-29T09:06:18;99213.59;;;25.47;100.00
7441;BME280;29616;51.950;8.572;2023-07-29T09:08:48;99216.44;;;24.83;100.00
7441;BME280;29616;51.950;8.572;2023-07-29T09:11:20;99203.94;;;25.27;100.00
7441;BME280;29616;51.950;8.572;2023-07-29T09:13:49;99200.91;;;24.97;100.00
7441;BME280;29616;51.950;8.572;2023-07-29T09:16:18;99210.31;;;24.86;100.00
7441;BME280;29616;51.950;8.572;2023-07-29T09:18:49;99203.84;;;24.81;100.00
7441;BME280;29616;51.950;8.572;2023-07-29T09:21:25;99190.22;;;25.26;100.00
7441;BME280;29616;51.950;8.572;2023-07-29T09:23:56;99213.34;;;26.10;100.00
7441;BME280;29616;51.950;8.572;2023-07-29T09:26:27;99197.59;;;25.94;100.00
7441;BME280;29616;51.950;8.572;2023-07-29T09:28:58;99159.53;;;24.94;100.00
7441;BME280;29616;51.950;8.572;2023-07-29T09:31:28;99192.72;;;25.69;100.00
7441;BME280;29616;51.950;8.572;2023-07-29T09:33:58;99224.91;;;25.67;100.00
7441;BME280;29616;51.950;8.572;2023-07-29T09:36:27;99205.72;;;25.44;100.00
7441;BME280;29616;51.950;8.572;2023-07-29T09:38:59;99231.41;;;25.36;100.00
7441;BME280;29616;51.950;8.572;2023-07-29T09:41:30;99220.22;;;25.87;100.00
7441;BME280;29616;51.950;8.572;2023-07-29T09:44:02;99198.19;;;25.07;100.00
7441;BME280;29616;51.950;8.572;2023-07-29T09:46:33;99222.06;;;25.57;100.00
7441;BME280;29616;51.950;8.572;2023-07-29T09:49:05;99221.94;;;26.91;100.00
7441;BME280;29616;51.950;8.572;2023-07-29T09:51:38;99192.22;;;27.25;100.00
7441;BME280;29616;51.950;8.572;2023-07-29T09:54:07;99214.66;;;27.15;100.00
7441;BME280;29616;51.950;8.572;2023-07-29T09:56:42;99221.94;;;27.51;100.00
7441;BME280;29616;51.950;8.572;2023-07-29T09:59:12;99226.16;;;27.19;100.00
7441;BME280;29616;51.950;8.572;2023-07-29T10:01:41;99230.81;;;27.89;100.00
7441;BME280;29616;51.950;8.572;2023-07-29T10:04:11;99214.59;;;26.55;100.00
7441;BME280;29616;51.950;8.572;2023-07-29T10:06:41;99226.56;;;26.25;100.00
7441;BME280;29616;51.950;8.572;2023-07-29T10:09:11;99224.47;;;25.95;100.00
7441;BME280;29616;51.950;8.572;2023-07-29T10:11:44;99210.38;;;25.28;100.00
7441;BME280;29616;51.950;8.572;2023-07-29T10:14:12;99219.31;;;25.67;100.00
7441;BME280;29616;51.950;8.572;2023-07-29T10:16:42;99212.91;;;26.54;100.00
7441;BME280;29616;51.950;8.572;2023-07-29T10:19:13;99207.31;;;27.64;100.00
7441;BME280;29616;51.950;8.572;2023-07-29T10:21:48;99189.97;;;27.27;100.00
7441;BME280;29616;51.950;8.572;2023-07-29T10:24:19;99200.31;;;27.57;100.00
7441;BME280;29616;51.950;8.572;2023-07-29T10:26:59;99214.66;;;26.95;100.00
7441;BME280;29616;51.950;8.572;2023-07-29T10:29:32;99188.53;;;25.67;100.00
7441;BME280;29616;51.950;8.572;2023-07-29T10:32:03;99216.06;;;25.95;100.00
7441;BME280;29616;51.950;8.572;2023-07-29T10:34:33;99217.16;;;27.42;100.00
7441;BME280;29616;51.950;8.572;2023-07-29T10:37:03;99197.22;;;26.58;100.00
7441;BME280;29616;51.950;8.572;2023-07-29T10:39:38;99223.31;;;26.63;100.00
7441;BME280;29616;51.950;8.572;2023-07-29T10:42:08;99217.63;;;25.71;100.00
7441;BME280;29616;51.950;8.572;2023-07-29T10:44:51;99201.94;;;25.60;100.00
7441;BME280;29616;51.950;8.572;2023-07-29T10:47:25;99174.22;;;26.25;100.00
7441;BME280;29616;51.950;8.572;2023-07-29T10:49:56;99191.09;;;25.78;100.00
7441;BME280;29616;51.950;8.572;2023-07-29T10:52:40;99216.13;;;26.05;100.00
7441;BME280;29616;51.950;8.572;2023-07-29T10:55:28;99224.09;;;26.54;100.00
7441;BME280;29616;51.950;8.572;2023-07-29T10:58:09;99220.09;;;26.19;100.00
7441;BME280;29616;51.950;8.572;2023-07-29T11:00:41;99228.38;;;25.89;100.00
7441;BME280;29616;51.950;8.572;2023-07-29T11:03:11;99212.84;;;26.23;100.00
7441;BME280;29616;51.950;8.572;2023-07-29T11:05:47;99193.81;;;26.25;100.00
7441;BME280;29616;51.950;8.572;2023-07-29T11:08:18;99220.03;;;26.04;100.00
7441;BME280;29616;51.950;8.572;2023-07-29T11:11:04;99212.81;;;26.13;100.00
7441;BME280;29616;51.950;8.572;2023-07-29T11:13:36;99215.22;;;26.87;100.00
7441;BME280;29616;51.950;8.572;2023-07-29T11:16:06;99214.66;;;27.25;100.00
7441;BME280;29616;51.950;8.572;2023-07-29T11:18:35;99198.94;;;26.99;100.00
7441;BME280;29616;51.950;8.572;2023-07-29T11:21:04;99213.53;;;26.81;100.00
7441;BME280;29616;51.950;8.572;2023-07-29T11:23:36;99203.97;;;26.72;100.00
7441;BME280;29616;51.950;8.572;2023-07-29T11:26:05;99211.25;;;26.63;100.00
7441;BME280;29616;51.950;8.572;2023-07-29T11:28:39;99216.84;;;26.53;100.00
7441;BME280;29616;51.950;8.572;2023-07-29T11:31:08;99210.47;;;25.95;100.00
7441;BME280;29616;51.950;8.572;2023-07-29T11:33:39;99217.38;;;25.72;100.00
7441;BME280;29616;51.950;8.572;2023-07-29T11:36:18;99206.00;;;25.99;100.00
7441;BME280;29616;51.950;8.572;2023-07-29T11:38:47;99212.25;;;26.16;100.00
7441;BME280;29616;51.950;8.572;2023-07-29T11:41:19;99217.66;;;26.43;100.00
7441;BME280;29616;51.950;8.572;2023-07-29T11:43:53;99204.84;;;26.87;100.00
7441;BME280;29616;51.950;8.572;2023-07-29T11:46:22;99174.78;;;27.53;100.00
7441;BME280;29616;51.950;8.572;2023-07-29T11:48:53;99202.31;;;27.16;100.00
7441;BME280;29616;51.950;8.572;2023-07-29T11:51:22;99190.47;;;27.59;100.00
7441;BME280;29616;51.950;8.572;2023-07-29T11:53:51;99197.16;;;28.81;100.00
7441;BME280;29616;51.950;8.572;2023-07-29T11:56:20;99199.91;;;28.92;100.00
7441;BME280;29616;51.950;8.572;2023-07-29T11:58:49;99202.66;;;28.97;100.00
7441;BME280;29616;51.950;8.572;2023-07-29T12:01:19;99182.69;;;28.64;100.00
7441;BME280;29616;51.950;8.572;2023-07-29T12:03:48;99198.28;;;29.14;100.00
7441;BME280;29616;51.950;8.572;2023-07-29T12:06:18;99177.47;;;29.68;100.00
7441;BME280;29616;51.950;8.572;2023-07-29T12:08:47;99214.19;;;29.86;100.00
7441;BME280;29616;51.950;8.572;2023-07-29T12:11:18;99219.38;;;29.17;100.00
7441;BME280;29616;51.950;8.572;2023-07-29T12:13:47;99204.31;;;28.64;100.00
7441;BME280;29616;51.950;8.572;2023-07-29T12:16:18;99179.19;;;28.39;100.00
7441;BME280;29616;51.950;8.572;2023-07-29T12:18:46;99180.16;;;28.14;100.00
7441;BME280;29616;51.950;8.572;2023-07-29T12:21:16;99208.41;;;28.81;100.00
7441;BME280;29616;51.950;8.572;2023-07-29T12:23:45;99209.72;;;28.94;100.00
7441;BME280;29616;51.950;8.572;2023-07-29T12:26:13;99204.28;;;28.20;100.00
7441;BME280;29616;51.950;8.572;2023-07-29T12:28:46;99197.06;;;28.53;100.00
7441;BME280;29616;51.950;8.572;2023-07-29T12:31:14;99192.72;;;28.26;100.00
7441;BME280;29616;51.950;8.572;2023-07-29T12:33:45;99201.44;;;27.56;100.00
7441;BME280;29616;51.950;8.572;2023-07-29T12:36:13;99208.19;;;27.25;100.00
7441;BME280;29616;51.950;8.572;2023-07-29T12:38:43;99209.06;;;26.95;100.00
7441;BME280;29616;51.950;8.572;2023-07-29T12:41:11;99203.69;;;27.44;100.00
7441;BME280;29616;51.950;8.572;2023-07-29T12:43:40;99205.25;;;28.49;100.00
7441;BME280;29616;51.950;8.572;2023-07-29T12:46:08;99214.06;;;27.28;100.00
7441;BME280;29616;51.950;8.572;2023-07-29T12:48:37;99188.28;;;26.56;100.00
7441;BME280;29616;51.950;8.572;2023-07-29T12:51:07;99171.72;;;26.49;100.00
7441;BME280;29616;51.950;8.572;2023-07-29T12:53:35;99201.66;;;26.23;100.00
7441;BME280;29616;51.950;8.572;2023-07-29T12:56:03;99198.97;;;25.81;100.00
7441;BME280;29616;51.950;8.572;2023-07-29T12:58:32;99204.53;;;25.35;100.00
7441;BME280;29616;51.950;8.572;2023-07-29T13:01:01;99188.91;;;25.39;100.00
7441;BME280;29616;51.950;8.572;2023-07-29T13:03:30;99189.31;;;25.20;100.00
7441;BME280;29616;51.950;8.572;2023-07-29T13:05:59;99190.22;;;24.89;100.00
7441;BME280;29616;51.950;8.572;2023-07-29T13:08:30;99189.13;;;25.32;100.00
7441;BME280;29616;51.950;8.572;2023-07-29T13:10:58;99193.28;;;27.39;100.00
7441;BME280;29616;51.950;8.572;2023-07-29T13:13:27;99172.72;;;28.38;100.00
7441;BME280;29616;51.950;8.572;2023-07-29T13:15:56;99209.41;;;28.96;100.00